createdAt,value
2023-03-26T00:04:38.721Z,8.48
2023-03-26T00:09:40.475Z,8.36
2023-03-26T00:14:41.996Z,8.33
2023-03-26T00:19:44.034Z,8.33
2023-03-26T00:24:48.436Z,8.44
2023-03-26T00:29:50.075Z,8.43
2023-03-26T00:34:52.072Z,8.37
2023-03-26T00:39:54.198Z,8.46
2023-03-26T00:45:02.537Z,8.36
2023-03-26T00:50:04.367Z,8.39
2023-03-26T00:55:06.469Z,8.35
2023-03-26T01:00:17.058Z,8.32
2023-03-26T01:05:34.000Z,8.38
2023-03-26T01:10:38.838Z,8.39
2023-03-26T01:15:41.868Z,8.29
2023-03-26T01:20:46.778Z,8.30
2023-03-26T01:25:58.133Z,8.36
2023-03-26T01:31:25.154Z,8.44
2023-03-26T01:36:41.629Z,8.61
2023-03-26T01:41:47.211Z,8.61
2023-03-26T01:46:51.379Z,8.53
2023-03-26T01:51:52.982Z,8.50
2023-03-26T01:57:21.413Z,8.57
2023-03-26T02:02:54.954Z,8.70
2023-03-26T02:07:58.544Z,8.72
2023-03-26T02:13:00.854Z,8.73
2023-03-26T02:18:04.075Z,8.74
2023-03-26T02:23:06.701Z,8.65
2023-03-26T02:28:08.683Z,8.55
2023-03-26T02:33:18.234Z,8.65
2023-03-26T02:38:19.914Z,8.50
2023-03-26T02:43:22.561Z,8.60
2023-03-26T02:48:24.902Z,8.57
2023-03-26T02:53:30.735Z,8.62
2023-03-26T02:59:02.162Z,8.61
2023-03-26T03:04:04.404Z,8.49
2023-03-26T03:09:12.699Z,8.57
2023-03-26T03:14:20.643Z,8.62
2023-03-26T03:19:22.272Z,8.38
2023-03-26T03:24:24.176Z,8.45
2023-03-26T03:29:25.951Z,8.38
2023-03-26T03:34:27.891Z,8.27
2023-03-26T03:39:29.831Z,8.35
2023-03-26T03:44:31.539Z,8.43
2023-03-26T03:49:34.072Z,8.40
2023-03-26T03:54:36.092Z,8.24
2023-03-26T03:59:47.469Z,8.33
2023-03-26T04:04:50.596Z,8.26
2023-03-26T04:09:55.314Z,8.31
2023-03-26T04:15:23.723Z,8.33
2023-03-26T04:20:25.912Z,8.25
2023-03-26T04:25:30.467Z,8.25
2023-03-26T04:30:42.394Z,8.17
2023-03-26T04:36:09.296Z,8.46
2023-03-26T04:41:13.385Z,8.34
2023-03-26T04:46:27.855Z,8.22
2023-03-26T04:51:45.600Z,8.20
2023-03-26T04:57:14.819Z,8.56
2023-03-26T05:02:40.003Z,8.50
2023-03-26T05:07:42.392Z,8.22
2023-03-26T05:12:46.541Z,8.40
2023-03-26T05:17:52.742Z,8.35
2023-03-26T05:23:15.609Z,8.35
2023-03-26T05:28:24.408Z,8.24
2023-03-26T05:33:32.631Z,8.51
2023-03-26T05:38:39.293Z,8.44
2023-03-26T05:43:45.098Z,8.53
2023-03-26T05:48:52.127Z,8.67
2023-03-26T05:53:54.039Z,8.77
2023-03-26T05:59:14.783Z,8.72
2023-03-26T06:04:40.969Z,8.72
2023-03-26T06:10:09.432Z,9.00
2023-03-26T06:15:11.435Z,8.86
2023-03-26T06:20:22.314Z,9.08
2023-03-26T06:25:26.049Z,9.12
2023-03-26T06:30:34.515Z,9.08
2023-03-26T06:35:44.206Z,9.11
2023-03-26T06:40:46.916Z,8.78
2023-03-26T06:46:03.525Z,8.58
2023-03-26T06:51:14.067Z,8.70
2023-03-26T06:56:47.653Z,8.67
2023-03-26T07:02:10.558Z,8.87
2023-03-26T07:07:31.128Z,8.63
2023-03-26T07:12:51.443Z,8.49
2023-03-26T07:17:56.350Z,8.69
2023-03-26T07:23:02.279Z,8.78
2023-03-26T07:28:28.712Z,8.79
2023-03-26T07:33:53.743Z,8.67
2023-03-26T07:39:42.624Z,8.93
2023-03-26T07:45:42.143Z,8.89
2023-03-26T07:51:03.437Z,9.01
2023-03-26T07:56:34.830Z,8.91
2023-03-26T08:02:39.281Z,8.82
2023-03-26T08:08:05.636Z,9.12
2023-03-26T08:13:21.008Z,9.04
2023-03-26T08:18:31.555Z,9.42
2023-03-26T08:23:50.947Z,9.32
2023-03-26T08:29:04.051Z,9.47
2023-03-26T08:34:06.502Z,9.18
2023-03-26T08:39:10.809Z,9.23
2023-03-26T08:44:44.217Z,9.40
2023-03-26T08:50:09.781Z,9.43
2023-03-26T08:55:33.320Z,9.38
2023-03-26T09:01:08.505Z,9.65
2023-03-26T09:06:39.727Z,10.04
2023-03-26T09:12:09.800Z,9.94
2023-03-26T09:17:29.589Z,9.89
2023-03-26T09:22:50.455Z,9.79
2023-03-26T09:28:27.388Z,9.61
2023-03-26T09:33:53.992Z,9.59
2023-03-26T09:39:29.625Z,9.75
2023-03-26T09:45:01.137Z,10.07
2023-03-26T09:50:29.627Z,9.30
2023-03-26T09:55:54.197Z,9.91
2023-03-26T10:01:32.164Z,9.47
2023-03-26T10:07:01.337Z,9.77
2023-03-26T10:12:18.804Z,9.69
2023-03-26T10:17:33.811Z,9.69
2023-03-26T10:22:59.726Z,9.69
2023-03-26T10:28:33.226Z,10.10
2023-03-26T10:33:52.689Z,9.75
2023-03-26T10:39:37.636Z,9.44
2023-03-26T10:45:11.668Z,9.39
2023-03-26T10:50:23.729Z,9.42
2023-03-26T10:55:35.246Z,9.52
2023-03-26T11:00:42.531Z,9.44
2023-03-26T11:06:05.291Z,8.95
2023-03-26T11:11:22.145Z,8.68
2023-03-26T11:16:29.624Z,8.70
2023-03-26T11:21:51.117Z,8.45
2023-03-26T11:27:15.142Z,8.56
2023-03-26T11:32:29.952Z,8.55
2023-03-26T11:37:46.406Z,8.83
2023-03-26T11:42:55.921Z,8.94
2023-03-26T11:48:10.701Z,8.47
2023-03-26T11:53:18.280Z,8.59
2023-03-26T11:58:31.262Z,8.25
2023-03-26T12:03:33.831Z,8.40
2023-03-26T12:08:39.446Z,8.42
2023-03-26T12:13:52.472Z,8.37
2023-03-26T12:19:05.457Z,8.19
2023-03-26T12:24:29.395Z,8.13
2023-03-26T12:29:34.644Z,8.11
2023-03-26T12:34:39.423Z,8.09
2023-03-26T12:40:08.705Z,8.12
2023-03-26T12:45:06.845Z,8.17
2023-03-26T12:50:14.751Z,8.02
2023-03-26T12:55:42.286Z,8.12
2023-03-26T13:01:15.886Z,8.07
2023-03-26T13:06:30.982Z,8.07
2023-03-26T13:12:00.488Z,8.14
2023-03-26T13:17:25.440Z,7.97
2023-03-26T13:22:40.819Z,7.76
2023-03-26T13:27:52.274Z,7.97
2023-03-26T13:33:06.129Z,7.78
2023-03-26T13:38:20.453Z,7.89
2023-03-26T13:43:41.933Z,7.74
2023-03-26T13:49:03.811Z,7.86
2023-03-26T13:54:21.669Z,7.88
2023-03-26T13:59:55.645Z,7.98
2023-03-26T14:05:04.757Z,8.14
2023-03-26T14:10:18.739Z,8.17
2023-03-26T14:15:49.962Z,8.39
2023-03-26T14:21:07.373Z,8.50
2023-03-26T14:26:29.191Z,8.33
2023-03-26T14:31:42.873Z,8.37
2023-03-26T14:36:59.504Z,8.35
2023-03-26T14:42:22.923Z,8.35
2023-03-26T14:47:25.143Z,8.25
2023-03-26T14:52:45.935Z,8.17
2023-03-26T14:58:04.027Z,8.13
2023-03-26T15:03:34.577Z,8.06
2023-03-26T15:08:53.493Z,8.10
2023-03-26T15:14:11.058Z,8.33
2023-03-26T15:19:31.642Z,8.28
2023-03-26T15:25:00.812Z,8.36
2023-03-26T15:30:42.368Z,8.35
2023-03-26T15:36:11.728Z,8.44
2023-03-26T15:41:41.997Z,8.14
2023-03-26T15:47:26.132Z,8.05
2023-03-26T15:53:06.630Z,7.85
2023-03-26T15:58:40.607Z,7.71
2023-03-26T16:04:05.205Z,7.76
2023-03-26T16:09:19.928Z,7.77
2023-03-26T16:14:48.412Z,7.48
2023-03-26T16:19:52.207Z,7.63
2023-03-26T16:25:28.717Z,7.55
2023-03-26T16:30:31.727Z,7.41
2023-03-26T16:35:41.620Z,7.45
2023-03-26T16:40:51.357Z,7.49
2023-03-26T16:46:05.723Z,7.41
2023-03-26T16:51:26.198Z,7.36
2023-03-26T16:56:33.815Z,7.20
2023-03-26T17:01:45.265Z,7.19
2023-03-26T17:07:13.767Z,7.18
2023-03-26T17:12:26.237Z,7.24
2023-03-26T17:17:52.616Z,7.05
2023-03-26T17:23:08.163Z,7.08
2023-03-26T17:28:21.398Z,6.99
2023-03-26T17:33:26.884Z,6.86
2023-03-26T17:38:28.631Z,6.78
2023-03-26T17:43:36.330Z,6.70
2023-03-26T17:48:45.686Z,6.51
2023-03-26T17:53:47.691Z,6.48
2023-03-26T17:58:53.149Z,6.46
2023-03-26T18:03:57.782Z,6.35
2023-03-26T18:09:20.962Z,6.36
2023-03-26T18:14:42.085Z,6.30
2023-03-26T18:20:06.402Z,6.18
2023-03-26T18:25:22.188Z,6.20
2023-03-26T18:30:26.023Z,6.05
2023-03-26T18:35:39.192Z,5.99
2023-03-26T18:40:45.589Z,5.97
2023-03-26T18:45:51.834Z,5.95
2023-03-26T18:51:05.054Z,5.85
2023-03-26T18:56:27.930Z,5.82
2023-03-26T19:01:33.160Z,5.67
2023-03-26T19:06:38.455Z,5.40
2023-03-26T19:11:42.559Z,5.13
2023-03-26T19:16:54.047Z,5.02
2023-03-26T19:21:59.069Z,5.08
2023-03-26T19:27:01.344Z,4.80
2023-03-26T19:32:06.561Z,4.70
2023-03-26T19:37:26.401Z,4.73
2023-03-26T19:42:42.856Z,4.72
2023-03-26T19:47:52.188Z,4.65
2023-03-26T19:53:15.967Z,4.69
2023-03-26T19:58:19.708Z,4.54
2023-03-26T20:03:29.255Z,4.59
2023-03-26T20:08:31.006Z,4.49
2023-03-26T20:13:32.580Z,4.59
2023-03-26T20:18:37.671Z,4.81
2023-03-26T20:23:40.711Z,4.52
2023-03-26T20:28:48.332Z,4.48
2023-03-26T20:33:54.481Z,4.27
2023-03-26T20:38:57.360Z,3.87
2023-03-26T20:43:59.237Z,3.69
2023-03-26T20:49:00.856Z,3.70
2023-03-26T20:54:02.445Z,3.62
2023-03-26T20:59:10.993Z,3.50
2023-03-26T21:04:13.920Z,3.68
2023-03-26T21:09:23.479Z,3.67
2023-03-26T21:14:41.908Z,3.71
2023-03-26T21:19:44.831Z,3.58
2023-03-26T21:25:39.130Z,3.53
2023-03-26T21:30:40.997Z,3.43
2023-03-26T21:35:43.058Z,3.41
2023-03-26T21:40:53.003Z,3.45
2023-03-26T21:46:00.203Z,3.57
2023-03-26T21:51:04.699Z,3.34
2023-03-26T21:56:27.407Z,3.25
2023-03-26T22:02:00.471Z,3.17
2023-03-26T22:07:12.156Z,3.00
2023-03-26T22:12:13.727Z,2.68
2023-03-26T22:17:15.350Z,2.69
2023-03-26T22:22:16.933Z,2.43
2023-03-26T22:27:18.525Z,2.58
2023-03-26T22:32:20.046Z,2.69
2023-03-26T22:37:23.505Z,2.57
2023-03-26T22:42:27.515Z,2.48
2023-03-26T22:47:30.913Z,2.39
2023-03-26T22:52:36.500Z,2.32
2023-03-26T22:57:38.973Z,2.12
2023-03-26T23:02:40.885Z,2.12
2023-03-26T23:07:42.606Z,2.07
2023-03-26T23:12:44.145Z,2.00
2023-03-26T23:17:45.839Z,1.94
2023-03-26T23:22:56.566Z,2.12
2023-03-26T23:27:58.522Z,2.06
2023-03-26T23:33:01.702Z,1.86
2023-03-26T23:38:03.246Z,1.75
2023-03-26T23:43:05.913Z,1.61
2023-03-26T23:48:08.282Z,1.49
2023-03-26T23:53:09.896Z,1.38
2023-03-26T23:58:11.444Z,1.53
